createdAt,value
2018-12-18T00:02:06.789Z,101632.47
2018-12-18T00:04:34.595Z,101640.08
2018-12-18T00:07:02.376Z,101641.77
2018-12-18T00:09:30.047Z,101638.08
2018-12-18T00:11:59.374Z,101630.46
2018-12-18T00:14:27.505Z,101630.65
2018-12-18T00:16:55.262Z,101631.67
2018-12-18T00:19:23.022Z,101624.59
2018-12-18T00:21:50.788Z,101626.41
2018-12-18T00:24:18.684Z,101618.51
2018-12-18T00:26:46.749Z,101619.53
2018-12-18T00:29:14.162Z,101609.91
2018-12-18T00:31:41.678Z,101607.91
2018-12-18T00:34:09.419Z,101607.14
2018-12-18T00:36:37.183Z,101601.38
2018-12-18T00:39:06.304Z,101601.05
2018-12-18T00:41:34.140Z,101610.86
2018-12-18T00:44:01.617Z,101607.32
2018-12-18T00:46:29.343Z,101604.77
2018-12-18T00:48:57.109Z,101602.59
2018-12-18T00:51:24.776Z,101604.70
2018-12-18T00:53:52.336Z,101604.99
2018-12-18T00:56:20.005Z,101602.44
2018-12-18T00:58:47.412Z,101606.48
2018-12-18T01:01:15.040Z,101607.83
2018-12-18T01:03:42.639Z,101610.28
2018-12-18T01:06:10.530Z,101604.19
2018-12-18T01:08:38.208Z,101606.74
2018-12-18T01:11:06.160Z,101606.23
2018-12-18T01:13:33.818Z,101602.55
2018-12-18T01:16:01.591Z,101602.04
2018-12-18T01:18:29.468Z,101601.57
2018-12-18T01:20:57.222Z,101607.62
2018-12-18T01:23:24.613Z,101604.48
2018-12-18T01:25:52.400Z,101607.29
2018-12-18T01:28:20.029Z,101611.84
2018-12-18T01:30:47.780Z,101602.92
2018-12-18T01:33:15.230Z,101601.97
2018-12-18T01:35:42.993Z,101610.56
2018-12-18T01:38:10.653Z,101597.92
2018-12-18T01:40:38.422Z,101598.95
2018-12-18T01:43:06.159Z,101592.20
2018-12-18T01:45:33.741Z,101589.69
2018-12-18T01:48:01.483Z,101591.22
2018-12-18T01:50:29.170Z,101597.45
2018-12-18T01:52:56.727Z,101587.17
2018-12-18T01:55:24.412Z,101589.03
2018-12-18T01:57:52.048Z,101580.84
2018-12-18T02:00:19.815Z,101579.78
2018-12-18T02:02:47.393Z,101579.78
2018-12-18T02:05:15.064Z,101580.11
2018-12-18T02:07:42.708Z,101578.14
2018-12-18T02:10:10.258Z,101583.83
2018-12-18T02:12:37.962Z,101589.87
2018-12-18T02:15:05.758Z,101579.78
2018-12-18T02:17:33.251Z,101573.44
2018-12-18T02:20:01.094Z,101580.00
2018-12-18T02:22:28.643Z,101576.32
2018-12-18T02:24:56.421Z,101578.83
2018-12-18T02:27:23.995Z,101580.55
2018-12-18T02:29:51.497Z,101572.86
2018-12-18T02:32:19.216Z,101569.00
2018-12-18T02:34:46.880Z,101564.63
2018-12-18T02:37:14.435Z,101566.48
2018-12-18T02:39:42.198Z,101565.50
2018-12-18T02:42:09.742Z,101566.48
2018-12-18T02:44:37.539Z,101565.17
2018-12-18T02:47:05.085Z,101555.41
2018-12-18T02:49:32.748Z,101563.13
2018-12-18T02:52:00.420Z,101565.83
2018-12-18T02:54:28.000Z,101563.13
2018-12-18T02:56:55.728Z,101567.31
2018-12-18T02:59:23.315Z,101563.13
2018-12-18T03:01:50.951Z,101554.39
2018-12-18T03:04:21.750Z,101553.05
2018-12-18T03:06:48.501Z,101559.45
2018-12-18T03:09:16.185Z,101557.09
2018-12-18T03:11:43.834Z,101555.73
2018-12-18T03:14:11.724Z,101552.02
2018-12-18T03:16:39.184Z,101551.84
2018-12-18T03:19:06.916Z,101557.05
2018-12-18T03:21:34.527Z,101562.11
2018-12-18T03:24:02.358Z,101556.25
2018-12-18T03:26:30.432Z,101554.06
2018-12-18T03:28:58.149Z,101555.63
2018-12-18T03:31:26.819Z,101558.83
2018-12-18T03:33:54.425Z,101569.28
2018-12-18T03:36:22.403Z,101566.08
2018-12-18T03:38:50.069Z,101564.25
2018-12-18T03:41:17.744Z,101559.56
2018-12-18T03:43:45.289Z,101556.68
2018-12-18T03:46:13.367Z,101560.39
2018-12-18T03:48:40.861Z,101560.06
2018-12-18T03:51:08.369Z,101553.84
2018-12-18T03:53:36.335Z,101565.61
2018-12-18T03:56:03.895Z,101568.66
2018-12-18T03:58:32.037Z,101560.46
2018-12-18T04:01:03.919Z,101557.09
2018-12-18T04:03:31.804Z,101550.78
2018-12-18T04:05:59.757Z,101550.42
2018-12-18T04:08:27.621Z,101548.45
2018-12-18T04:10:55.385Z,101548.45
2018-12-18T04:13:23.258Z,101555.48
2018-12-18T04:15:50.857Z,101548.37
2018-12-18T04:18:18.817Z,101543.75
2018-12-18T04:20:46.608Z,101548.20
2018-12-18T04:23:14.422Z,101549.41
2018-12-18T04:25:42.567Z,101545.58
2018-12-18T04:28:10.200Z,101558.84
2018-12-18T04:30:38.227Z,101573.69
2018-12-18T04:33:05.778Z,101578.25
2018-12-18T04:35:33.755Z,101573.70
2018-12-18T04:38:01.371Z,101553.84
2018-12-18T04:40:29.388Z,101542.73
2018-12-18T04:42:57.374Z,101542.92
2018-12-18T04:45:25.523Z,101537.56
2018-12-18T04:47:53.093Z,101534.08
2018-12-18T04:50:21.074Z,101541.70
2018-12-18T04:52:48.536Z,101534.87
2018-12-18T04:55:16.393Z,101532.10
2018-12-18T04:57:44.049Z,101538.66
2018-12-18T05:00:12.098Z,101542.36
2018-12-18T05:02:39.482Z,101546.05
2018-12-18T05:05:07.339Z,101553.28
2018-12-18T05:07:34.900Z,101549.84
2018-12-18T05:10:02.860Z,101544.80
2018-12-18T05:12:30.523Z,101541.59
2018-12-18T05:14:58.194Z,101531.66
2018-12-18T05:17:26.162Z,101544.47
2018-12-18T05:19:53.802Z,101547.66
2018-12-18T05:22:21.588Z,101547.99
2018-12-18T05:24:49.754Z,101553.22
2018-12-18T05:27:17.792Z,101553.89
2018-12-18T05:29:45.498Z,101559.09
2018-12-18T05:32:13.260Z,101556.05
2018-12-18T05:34:41.029Z,101559.24
2018-12-18T05:37:08.861Z,101569.30
2018-12-18T05:39:36.661Z,101572.98
2018-12-18T05:42:04.411Z,101571.81
2018-12-18T05:44:32.271Z,101560.71
2018-12-18T05:46:59.851Z,101568.61
2018-12-18T05:49:31.115Z,101560.86
2018-12-18T05:51:58.756Z,101561.20
2018-12-18T05:54:26.429Z,101560.53
2018-12-18T05:56:54.053Z,101557.84
2018-12-18T05:59:21.825Z,101554.13
2018-12-18T06:01:49.233Z,101557.48
2018-12-18T06:04:16.741Z,101548.09
2018-12-18T06:06:44.719Z,101543.21
2018-12-18T06:09:12.379Z,101538.72
2018-12-18T06:11:40.321Z,101538.34
2018-12-18T06:14:07.807Z,101546.74
2018-12-18T06:16:35.754Z,101541.69
2018-12-18T06:19:03.451Z,101541.53
2018-12-18T06:21:31.129Z,101539.69
2018-12-18T06:23:59.287Z,101538.67
2018-12-18T06:26:27.113Z,101542.88
2018-12-18T06:28:54.541Z,101541.23
2018-12-18T06:31:22.052Z,101547.12
2018-12-18T06:33:49.834Z,101547.97
2018-12-18T06:36:17.377Z,101545.13
2018-12-18T06:38:45.315Z,101545.78
2018-12-18T06:41:13.127Z,101536.48
2018-12-18T06:43:40.870Z,101536.36
2018-12-18T06:46:08.857Z,101533.16
2018-12-18T06:48:36.341Z,101529.93
2018-12-18T06:51:03.813Z,101532.33
2018-12-18T06:53:31.806Z,101536.87
2018-12-18T06:55:59.485Z,101534.30
2018-12-18T06:58:27.526Z,101535.85
2018-12-18T07:00:55.424Z,101529.57
2018-12-18T07:03:23.161Z,101527.21
2018-12-18T07:05:50.825Z,101529.55
2018-12-18T07:08:18.715Z,101530.50
2018-12-18T07:10:46.769Z,101533.52
2018-12-18T07:13:14.424Z,101527.63
2018-12-18T07:15:42.399Z,101534.69
2018-12-18T07:18:10.261Z,101528.11
2018-12-18T07:20:37.917Z,101525.36
2018-12-18T07:23:05.687Z,101525.66
2018-12-18T07:25:33.347Z,101542.05
2018-12-18T07:28:01.009Z,101547.22
2018-12-18T07:30:28.621Z,101556.30
2018-12-18T07:32:56.311Z,101558.41
2018-12-18T07:35:23.899Z,101559.00
2018-12-18T07:37:51.860Z,101564.36
2018-12-18T07:40:19.700Z,101562.58
2018-12-18T07:42:47.365Z,101558.03
2018-12-18T07:45:15.044Z,101557.16
2018-12-18T07:47:42.768Z,101549.52
2018-12-18T07:50:10.669Z,101548.64
2018-12-18T07:52:38.654Z,101543.64
2018-12-18T07:55:06.058Z,101543.78
2018-12-18T07:57:33.473Z,101542.19
2018-12-18T08:00:01.518Z,101549.58
2018-12-18T08:02:29.194Z,101555.11
2018-12-18T08:04:56.944Z,101550.85
2018-12-18T08:07:24.509Z,101551.00
2018-12-18T08:09:52.287Z,101559.05
2018-12-18T08:12:21.639Z,101554.92
2018-12-18T08:14:49.445Z,101556.41
2018-12-18T08:17:16.895Z,101557.58
2018-12-18T08:19:44.563Z,101570.03
2018-12-18T08:22:12.902Z,101566.94
2018-12-18T08:24:40.607Z,101572.33
2018-12-18T08:27:08.214Z,101566.38
2018-12-18T08:29:35.927Z,101562.01
2018-12-18T08:32:03.435Z,101549.02
2018-12-18T08:34:31.050Z,101541.22
2018-12-18T08:36:58.763Z,101541.87
2018-12-18T08:39:26.482Z,101538.53
2018-12-18T08:41:54.002Z,101534.43
2018-12-18T08:44:21.696Z,101523.59
2018-12-18T08:46:49.450Z,101525.56
2018-12-18T08:49:17.122Z,101514.77
2018-12-18T08:51:44.575Z,101509.51
2018-12-18T08:54:12.339Z,101509.84
2018-12-18T08:56:39.803Z,101495.83
2018-12-18T08:59:07.550Z,101493.78
2018-12-18T09:01:35.229Z,101494.63
2018-12-18T09:04:02.873Z,101491.19
2018-12-18T09:06:30.350Z,101490.86
2018-12-18T09:08:58.749Z,101485.60
2018-12-18T09:11:26.567Z,101493.51
2018-12-18T09:13:54.079Z,101497.23
2018-12-18T09:16:27.427Z,101497.05
2018-12-18T09:18:54.991Z,101494.67
2018-12-18T09:21:22.759Z,101499.36
2018-12-18T09:23:50.427Z,101490.21
2018-12-18T09:26:18.531Z,101491.56
2018-12-18T09:28:46.265Z,101485.88
2018-12-18T09:31:14.009Z,101482.62
2018-12-18T09:33:41.689Z,101484.63
2018-12-18T09:36:09.229Z,101489.32
2018-12-18T09:38:42.452Z,101485.59
2018-12-18T09:41:15.614Z,101494.84
2018-12-18T09:43:49.031Z,101484.25
2018-12-18T09:46:16.679Z,101483.73
2018-12-18T09:48:44.339Z,101480.66
2018-12-18T09:51:11.975Z,101477.63
2018-12-18T09:53:39.508Z,101476.80
2018-12-18T09:56:07.325Z,101466.61
2018-12-18T09:58:34.787Z,101464.23
2018-12-18T10:01:02.555Z,101457.06
2018-12-18T10:03:33.561Z,101449.30
2018-12-18T10:06:00.020Z,101437.16
2018-12-18T10:08:27.885Z,101435.39
2018-12-18T10:10:55.301Z,101425.84
2018-12-18T10:13:23.105Z,101417.84
2018-12-18T10:15:50.593Z,101422.34
2018-12-18T10:18:18.328Z,101408.72
2018-12-18T10:20:46.185Z,101400.11
2018-12-18T10:23:13.947Z,101394.39
2018-12-18T10:25:41.317Z,101393.55
2018-12-18T10:28:08.957Z,101384.05
2018-12-18T10:30:36.549Z,101383.72
2018-12-18T10:33:04.289Z,101389.13
2018-12-18T10:35:36.510Z,101386.23
2018-12-18T10:38:01.971Z,101381.03
2018-12-18T10:40:29.836Z,101376.59
2018-12-18T10:42:57.503Z,101375.63
2018-12-18T10:45:25.056Z,101362.78
2018-12-18T10:47:52.783Z,101363.09
2018-12-18T10:50:20.477Z,101363.70
2018-12-18T10:52:48.050Z,101366.09
2018-12-18T10:55:15.709Z,101362.87
2018-12-18T10:57:43.981Z,101344.81
2018-12-18T11:00:17.279Z,101333.70
2018-12-18T11:02:44.973Z,101339.41
2018-12-18T11:05:12.519Z,101335.88
2018-12-18T11:07:40.167Z,101328.94
2018-12-18T11:10:07.823Z,101324.70
2018-12-18T11:12:38.868Z,101318.47
2018-12-18T11:15:06.926Z,101314.73
2018-12-18T11:17:34.579Z,101326.17
2018-12-18T11:20:02.247Z,101317.75
2018-12-18T11:22:29.940Z,101309.97
2018-12-18T11:24:57.669Z,101301.05
2018-12-18T11:27:25.267Z,101286.91
2018-12-18T11:29:53.046Z,101284.08
2018-12-18T11:32:20.758Z,101279.00
2018-12-18T11:34:48.435Z,101275.15
2018-12-18T11:37:16.595Z,101269.23
2018-12-18T11:39:44.379Z,101263.84
2018-12-18T11:42:12.066Z,101252.84
2018-12-18T11:44:39.700Z,101257.61
2018-12-18T11:47:07.765Z,101250.66
2018-12-18T11:49:35.551Z,101238.52
2018-12-18T11:52:03.103Z,101242.25
2018-12-18T11:54:30.857Z,101234.47
2018-12-18T11:56:58.521Z,101231.45
2018-12-18T11:59:25.988Z,101223.36
2018-12-18T12:01:53.723Z,101220.66
2018-12-18T12:04:21.473Z,101217.44
2018-12-18T12:06:49.055Z,101210.69
2018-12-18T12:09:17.205Z,101213.59
2018-12-18T12:11:44.903Z,101208.00
2018-12-18T12:14:12.578Z,101207.16
2018-12-18T12:16:40.215Z,101197.83
2018-12-18T12:19:07.982Z,101200.00
2018-12-18T12:21:35.653Z,101198.14
2018-12-18T12:24:03.207Z,101197.83
2018-12-18T12:26:33.824Z,101192.82
2018-12-18T12:29:01.482Z,101183.69
2018-12-18T12:31:29.189Z,101180.80
2018-12-18T12:33:57.425Z,101177.91
2018-12-18T12:36:29.631Z,101173.22
2018-12-18T12:38:55.056Z,101174.87
2018-12-18T12:41:22.876Z,101164.91
2018-12-18T12:43:50.626Z,101163.65
2018-12-18T12:46:18.302Z,101157.94
2018-12-18T12:48:51.322Z,101152.65
2018-12-18T12:51:18.950Z,101152.65
2018-12-18T12:53:46.584Z,101149.64
2018-12-18T12:56:14.354Z,101143.41
2018-12-18T12:58:42.140Z,101144.56
2018-12-18T13:01:09.674Z,101134.91
2018-12-18T13:03:37.092Z,101132.81
2018-12-18T13:06:04.820Z,101129.83
2018-12-18T13:08:32.461Z,101125.98
2018-12-18T13:11:00.116Z,101122.34
2018-12-18T13:13:27.718Z,101117.69
2018-12-18T13:15:55.420Z,101110.11
2018-12-18T13:18:23.008Z,101118.09
2018-12-18T13:20:50.663Z,101104.72
2018-12-18T13:23:18.333Z,101101.50
2018-12-18T13:25:45.977Z,101092.45
2018-12-18T13:28:13.465Z,101093.20
2018-12-18T13:30:41.121Z,101096.94
2018-12-18T13:33:08.877Z,101092.89
2018-12-18T13:35:36.307Z,101086.02
2018-12-18T13:38:04.036Z,101085.83
2018-12-18T13:40:32.351Z,101079.48
2018-12-18T13:43:00.066Z,101080.11
2018-12-18T13:45:27.701Z,101069.62
2018-12-18T13:47:55.561Z,101066.30
2018-12-18T13:50:23.615Z,101059.98
2018-12-18T13:52:51.295Z,101044.71
2018-12-18T13:55:18.939Z,101046.58
2018-12-18T13:57:46.503Z,101035.58
2018-12-18T14:00:14.179Z,101030.59
2018-12-18T14:02:41.866Z,101036.93
2018-12-18T14:05:09.377Z,101034.43
2018-12-18T14:07:36.939Z,101021.89
2018-12-18T14:10:06.137Z,101030.50
2018-12-18T14:12:33.743Z,101025.30
2018-12-18T14:15:01.356Z,101021.89
2018-12-18T14:17:29.067Z,101021.45
2018-12-18T14:19:56.893Z,101015.34
2018-12-18T14:22:25.089Z,101009.12
2018-12-18T14:24:52.851Z,101002.37
2018-12-18T14:27:20.560Z,100984.83
2018-12-18T14:29:48.083Z,100981.18
2018-12-18T14:32:15.607Z,100969.27
2018-12-18T14:34:43.367Z,100972.77
2018-12-18T14:37:10.836Z,100968.95
2018-12-18T14:39:38.541Z,100961.69
2018-12-18T14:42:06.099Z,100963.05
2018-12-18T14:44:33.711Z,100952.25
2018-12-18T14:47:01.281Z,100962.41
2018-12-18T14:49:29.012Z,100951.81
2018-12-18T14:51:56.540Z,100943.01
2018-12-18T14:54:24.337Z,100941.97
2018-12-18T14:56:51.817Z,100953.59
2018-12-18T14:59:20.087Z,100955.03
2018-12-18T15:01:47.946Z,100956.19
2018-12-18T15:04:15.545Z,100956.81
2018-12-18T15:06:43.228Z,100950.15
2018-12-18T15:09:10.841Z,100956.06
2018-12-18T15:11:38.440Z,100959.20
2018-12-18T15:14:06.069Z,100950.78
2018-12-18T15:16:33.722Z,100948.61
2018-12-18T15:19:01.156Z,100943.73
2018-12-18T15:21:28.640Z,100943.73
2018-12-18T15:23:56.402Z,100945.27
2018-12-18T15:26:23.817Z,100938.13
2018-12-18T15:28:51.511Z,100934.08
2018-12-18T15:31:19.172Z,100929.20
2018-12-18T15:33:47.160Z,100929.20
2018-12-18T15:36:14.823Z,100922.14
2018-12-18T15:38:42.790Z,100924.84
2018-12-18T15:41:10.252Z,100927.34
2018-12-18T15:43:38.096Z,100926.19
2018-12-18T15:46:05.758Z,100924.01
2018-12-18T15:48:33.728Z,100922.05
2018-12-18T15:51:01.233Z,100924.44
2018-12-18T15:53:29.256Z,100931.90
2018-12-18T15:55:57.330Z,100927.22
2018-12-18T15:58:25.402Z,100923.17
2018-12-18T16:00:52.986Z,100923.17
2018-12-18T16:03:20.545Z,100917.98
2018-12-18T16:05:48.230Z,100918.81
2018-12-18T16:08:15.748Z,100913.11
2018-12-18T16:10:43.728Z,100913.31
2018-12-18T16:13:11.177Z,100910.92
2018-12-18T16:15:39.127Z,100905.77
2018-12-18T16:18:06.569Z,100901.80
2018-12-18T16:20:35.180Z,100906.28
2018-12-18T16:23:03.039Z,100904.61
2018-12-18T16:25:30.922Z,100895.88
2018-12-18T16:27:58.480Z,100887.59
2018-12-18T16:30:26.329Z,100893.31
2018-12-18T16:32:53.809Z,100889.86
2018-12-18T16:35:21.658Z,100884.46
2018-12-18T16:37:49.246Z,100883.34
2018-12-18T16:40:17.141Z,100870.45
2018-12-18T16:42:45.153Z,100865.06
2018-12-18T16:45:12.745Z,100869.94
2018-12-18T16:47:40.406Z,100872.32
2018-12-18T16:50:08.067Z,100885.53
2018-12-18T16:52:35.890Z,100886.44
2018-12-18T16:55:04.598Z,100883.42
2018-12-18T16:57:32.057Z,100884.05
2018-12-18T16:59:59.963Z,100872.23
2018-12-18T17:02:27.753Z,100875.33
2018-12-18T17:04:55.348Z,100864.54
2018-12-18T17:07:29.450Z,100871.39
2018-12-18T17:09:52.896Z,100874.52
2018-12-18T17:12:20.814Z,100885.20
2018-12-18T17:14:48.243Z,100892.89
2018-12-18T17:17:16.446Z,100896.09
2018-12-18T17:19:44.003Z,100890.17
2018-12-18T17:22:12.311Z,100892.55
2018-12-18T17:24:39.866Z,100891.52
2018-12-18T17:27:07.887Z,100891.11
2018-12-18T17:29:35.520Z,100893.09
2018-12-18T17:32:03.441Z,100886.34
2018-12-18T17:34:31.604Z,100897.95
2018-12-18T17:36:59.250Z,100897.55
2018-12-18T17:39:27.016Z,100886.44
2018-12-18T17:41:55.103Z,100891.70
2018-12-18T17:44:22.557Z,100888.09
2018-12-18T17:46:50.588Z,100901.16
2018-12-18T17:49:18.449Z,100888.08
2018-12-18T17:51:46.040Z,100874.69
2018-12-18T17:54:13.811Z,100859.84
2018-12-18T17:56:41.403Z,100861.48
2018-12-18T17:59:09.352Z,100862.10
2018-12-18T18:01:37.001Z,100871.66
2018-12-18T18:04:04.598Z,100867.61
2018-12-18T18:06:32.515Z,100863.34
2018-12-18T18:08:59.959Z,100865.02
2018-12-18T18:11:27.896Z,100861.55
2018-12-18T18:13:55.560Z,100869.45
2018-12-18T18:16:23.384Z,100853.77
2018-12-18T18:18:51.089Z,100845.26
2018-12-18T18:21:19.050Z,100839.23
2018-12-18T18:23:47.123Z,100834.14
2018-12-18T18:26:16.415Z,100832.70
2018-12-18T18:28:44.435Z,100821.89
2018-12-18T18:31:11.996Z,100821.06
2018-12-18T18:33:40.102Z,100828.41
2018-12-18T18:36:07.636Z,100819.78
2018-12-18T18:38:35.598Z,100820.30
2018-12-18T18:41:03.602Z,100812.09
2018-12-18T18:43:31.910Z,100806.08
2018-12-18T18:45:59.958Z,100792.81
2018-12-18T18:48:27.632Z,100788.63
2018-12-18T18:50:55.218Z,100785.82
2018-12-18T18:53:23.132Z,100777.13
2018-12-18T18:55:50.568Z,100779.84
2018-12-18T18:58:19.357Z,100788.72
2018-12-18T19:00:47.288Z,100791.22
2018-12-18T19:03:14.964Z,100784.47
2018-12-18T19:05:42.866Z,100777.72
2018-12-18T19:08:11.820Z,100785.41
2018-12-18T19:10:39.875Z,100780.31
2018-12-18T19:13:07.940Z,100772.94
2018-12-18T19:15:36.201Z,100754.05
2018-12-18T19:18:04.126Z,100744.06
2018-12-18T19:23:05.343Z,100725.17
2018-12-18T19:25:34.152Z,100730.67
2018-12-18T19:28:01.940Z,100732.95
2018-12-18T19:30:31.773Z,100730.27
2018-12-18T19:33:00.628Z,100732.95
2018-12-18T19:35:28.344Z,100742.81
2018-12-18T19:38:03.184Z,100742.30
2018-12-18T19:40:29.256Z,100741.67
2018-12-18T19:42:56.847Z,100741.78
2018-12-18T19:45:24.828Z,100737.11
2018-12-18T19:47:53.377Z,100739.08
2018-12-18T19:50:21.861Z,100730.77
2018-12-18T19:52:49.707Z,100729.84
2018-12-18T19:55:18.670Z,100741.78
2018-12-18T19:57:46.514Z,100750.78
2018-12-18T20:00:14.125Z,100754.55
2018-12-18T20:02:41.984Z,100762.34
2018-12-18T20:05:11.002Z,100760.53
2018-12-18T20:07:38.876Z,100764.00
2018-12-18T20:10:07.131Z,100750.19
2018-12-18T20:12:35.971Z,100742.09
2018-12-18T20:15:05.598Z,100748.84
2018-12-18T20:17:46.261Z,100746.20
2018-12-18T20:20:14.600Z,100742.98
2018-12-18T20:22:42.719Z,100730.52
2018-12-18T20:25:10.421Z,100727.23
2018-12-18T20:27:39.104Z,100726.26
2018-12-18T20:30:07.563Z,100722.21
2018-12-18T20:32:36.801Z,100719.61
2018-12-18T20:35:04.593Z,100716.29
2018-12-18T20:37:33.572Z,100716.17
2018-12-18T20:40:02.302Z,100713.89
2018-12-18T20:42:29.994Z,100717.33
2018-12-18T20:44:58.826Z,100718.47
2018-12-18T20:47:26.694Z,100718.68
2018-12-18T20:49:54.791Z,100720.34
2018-12-18T20:52:23.479Z,100715.77
2018-12-18T20:54:51.248Z,100707.66
2018-12-18T20:57:20.478Z,100699.66
2018-12-18T20:59:50.620Z,100699.66
2018-12-18T21:02:18.254Z,100696.55
2018-12-18T21:04:46.131Z,100692.44
2018-12-18T21:07:14.151Z,100689.73
2018-12-18T21:09:44.151Z,100687.98
2018-12-18T21:12:11.845Z,100693.48
2018-12-18T21:14:41.160Z,100696.61
2018-12-18T21:17:09.971Z,100695.14
2018-12-18T21:19:38.645Z,100692.45
2018-12-18T21:22:09.156Z,100696.83
2018-12-18T21:24:38.413Z,100683.23
2018-12-18T21:27:06.368Z,100672.59
2018-12-18T21:29:34.797Z,100671.56
2018-12-18T21:32:03.045Z,100672.06
2018-12-18T21:34:31.690Z,100667.56
2018-12-18T21:36:59.397Z,100654.80
2018-12-18T21:39:28.355Z,100650.37
2018-12-18T21:41:56.086Z,100648.14
2018-12-18T21:44:25.321Z,100645.42
2018-12-18T21:46:53.422Z,100638.78
2018-12-18T21:49:21.897Z,100641.18
2018-12-18T21:51:50.429Z,100643.64
2018-12-18T21:54:18.202Z,100633.70
2018-12-18T21:56:45.822Z,100631.78
2018-12-18T21:59:13.428Z,100637.24
2018-12-18T22:01:41.058Z,100628.94
2018-12-18T22:04:09.171Z,100627.94
2018-12-18T22:06:36.929Z,100626.28
2018-12-18T22:09:06.470Z,100619.23
2018-12-18T22:11:34.049Z,100621.72
2018-12-18T22:14:01.697Z,100623.89
2018-12-18T22:16:29.530Z,100618.07
2018-12-18T22:18:57.719Z,100617.27
2018-12-18T22:21:25.391Z,100614.45
2018-12-18T22:23:53.052Z,100617.88
2018-12-18T22:26:20.736Z,100611.66
2018-12-18T22:28:48.348Z,100608.95
2018-12-18T22:31:15.982Z,100604.17
2018-12-18T22:33:43.735Z,100608.53
2018-12-18T22:36:11.569Z,100606.47
2018-12-18T22:38:43.628Z,100604.44
2018-12-18T22:41:09.047Z,100608.91
2018-12-18T22:43:36.931Z,100605.69
2018-12-18T22:46:04.668Z,100610.56
2018-12-18T22:48:32.350Z,100604.08
2018-12-18T22:51:00.006Z,100598.59
2018-12-18T22:53:27.660Z,100591.32
2018-12-18T22:55:55.440Z,100588.41
2018-12-18T22:58:23.118Z,100581.29
2018-12-18T23:00:53.198Z,100581.36
2018-12-18T23:03:20.942Z,100573.66
2018-12-18T23:05:48.632Z,100568.79
2018-12-18T23:08:16.298Z,100557.90
2018-12-18T23:10:43.962Z,100569.52
2018-12-18T23:13:13.509Z,100569.52
2018-12-18T23:15:41.552Z,100570.77
2018-12-18T23:18:09.195Z,100571.08
2018-12-18T23:20:36.776Z,100571.60
2018-12-18T23:23:04.518Z,100572.48
2018-12-18T23:25:32.383Z,100576.01
2018-12-18T23:28:00.046Z,100575.09
2018-12-18T23:30:27.708Z,100578.92
2018-12-18T23:32:55.254Z,100578.76
2018-12-18T23:35:23.031Z,100573.17
2018-12-18T23:37:50.696Z,100568.17
2018-12-18T23:40:18.267Z,100567.98
2018-12-18T23:42:45.918Z,100567.19
2018-12-18T23:45:13.664Z,100563.35
2018-12-18T23:47:41.351Z,100573.17
2018-12-18T23:50:08.983Z,100574.45
2018-12-18T23:52:36.761Z,100569.13
2018-12-18T23:55:04.885Z,100576.80
2018-12-18T23:57:32.576Z,100570.62
